createdAt,value
2023-09-18T00:00:47.296Z,5.39
2023-09-18T00:03:13.925Z,5.34
2023-09-18T00:05:40.438Z,5.06
2023-09-18T00:08:07.040Z,5.60
2023-09-18T00:10:33.682Z,5.54
2023-09-18T00:13:00.199Z,5.07
2023-09-18T00:15:27.668Z,4.83
2023-09-18T00:17:54.565Z,4.66
2023-09-18T00:20:21.358Z,5.22
2023-09-18T00:22:48.061Z,4.89
2023-09-18T00:25:16.340Z,5.38
2023-09-18T00:27:42.812Z,5.03
2023-09-18T00:30:09.891Z,5.05
2023-09-18T00:32:36.441Z,5.23
2023-09-18T00:35:03.220Z,6.10
2023-09-18T00:37:30.319Z,6.53
2023-09-18T00:39:56.880Z,5.88
2023-09-18T00:42:23.773Z,5.77
2023-09-18T00:44:51.510Z,5.68
2023-09-18T00:47:18.806Z,5.44
2023-09-18T00:49:52.510Z,5.47
2023-09-18T00:52:22.806Z,5.34
2023-09-18T00:54:51.124Z,6.19
2023-09-18T00:57:18.899Z,5.30
2023-09-18T00:59:46.206Z,5.39
2023-09-18T01:02:13.223Z,4.59
2023-09-18T01:04:45.049Z,4.63
2023-09-18T01:07:11.902Z,5.59
2023-09-18T01:09:39.405Z,4.68
2023-09-18T01:12:34.707Z,4.98
2023-09-18T01:15:24.050Z,5.07
2023-09-18T01:17:51.090Z,5.83
2023-09-18T01:20:18.281Z,5.90
2023-09-18T01:22:45.069Z,5.92
2023-09-18T01:25:11.733Z,5.71
2023-09-18T01:27:38.285Z,5.11
2023-09-18T01:30:05.607Z,5.04
2023-09-18T01:32:37.867Z,4.92
2023-09-18T01:35:09.405Z,5.29
2023-09-18T01:37:38.645Z,5.82
2023-09-18T01:40:09.634Z,5.99
2023-09-18T01:42:36.544Z,5.30
2023-09-18T01:45:04.099Z,5.55
2023-09-18T01:47:30.962Z,5.98
2023-09-18T01:49:57.655Z,6.07
2023-09-18T01:52:24.291Z,6.54
2023-09-18T01:54:51.060Z,6.86
2023-09-18T01:57:17.544Z,6.19
2023-09-18T01:59:44.726Z,6.14
2023-09-18T02:02:14.800Z,6.42
2023-09-18T02:05:06.595Z,6.97
2023-09-18T02:07:30.632Z,7.36
2023-09-18T02:09:57.220Z,7.00
2023-09-18T02:12:23.885Z,6.70
2023-09-18T02:14:50.496Z,6.30
2023-09-18T02:17:17.324Z,6.20
2023-09-18T02:19:44.418Z,5.48
2023-09-18T02:22:11.127Z,5.34
2023-09-18T02:24:37.706Z,5.23
2023-09-18T02:27:06.618Z,5.04
2023-09-18T02:29:33.282Z,5.49
2023-09-18T02:31:59.913Z,5.34
2023-09-18T02:34:26.527Z,5.53
2023-09-18T02:36:53.064Z,5.63
2023-09-18T02:39:19.590Z,5.86
2023-09-18T02:41:46.173Z,6.26
2023-09-18T02:44:12.923Z,5.78
2023-09-18T02:46:41.276Z,6.33
2023-09-18T02:49:07.794Z,5.83
2023-09-18T02:51:34.319Z,5.62
2023-09-18T02:54:00.945Z,6.13
2023-09-18T02:56:27.478Z,6.05
2023-09-18T02:58:54.277Z,6.34
2023-09-18T03:01:20.963Z,6.45
2023-09-18T03:03:47.588Z,5.92
2023-09-18T03:06:14.318Z,5.87
2023-09-18T03:08:41.521Z,6.05
2023-09-18T03:11:15.949Z,6.31
2023-09-18T03:13:48.224Z,6.51
2023-09-18T03:16:15.864Z,6.02
2023-09-18T03:18:42.442Z,6.45
2023-09-18T03:21:09.078Z,6.39
2023-09-18T03:23:35.714Z,6.68
2023-09-18T03:26:02.319Z,6.63
2023-09-18T03:28:29.138Z,6.14
2023-09-18T03:30:55.808Z,6.12
2023-09-18T03:33:22.449Z,6.40
2023-09-18T03:35:52.708Z,6.17
2023-09-18T03:38:19.682Z,6.31
2023-09-18T03:40:46.608Z,6.14
2023-09-18T03:43:13.688Z,6.24
2023-09-18T03:45:42.906Z,6.25
2023-09-18T03:48:11.599Z,6.00
2023-09-18T03:50:39.764Z,6.01
2023-09-18T03:53:06.945Z,6.23
2023-09-18T03:55:33.984Z,5.84
2023-09-18T03:58:01.403Z,5.72
2023-09-18T04:00:28.069Z,5.62
2023-09-18T04:02:54.698Z,5.90
2023-09-18T04:05:21.570Z,5.64
2023-09-18T04:07:48.371Z,5.85
2023-09-18T04:10:23.719Z,5.66
2023-09-18T04:12:52.606Z,6.04
2023-09-18T04:15:20.344Z,6.19
2023-09-18T04:17:47.803Z,6.00
2023-09-18T04:20:16.006Z,5.66
2023-09-18T04:22:50.688Z,5.30
2023-09-18T04:25:17.889Z,5.89
2023-09-18T04:27:44.449Z,6.11
2023-09-18T04:30:11.540Z,5.68
2023-09-18T04:32:39.113Z,6.04
2023-09-18T04:35:07.544Z,5.74
2023-09-18T04:37:39.362Z,5.70
2023-09-18T04:40:10.991Z,5.22
2023-09-18T04:42:39.754Z,5.89
2023-09-18T04:45:07.435Z,6.07
2023-09-18T04:47:34.058Z,6.49
2023-09-18T04:50:00.678Z,5.83
2023-09-18T04:52:27.202Z,6.42
2023-09-18T04:54:55.235Z,6.93
2023-09-18T04:57:21.733Z,6.15
2023-09-18T04:59:53.387Z,8.36
2023-09-18T05:02:26.464Z,6.69
2023-09-18T05:04:53.322Z,6.08
2023-09-18T05:07:19.857Z,5.86
2023-09-18T05:09:47.084Z,5.62
2023-09-18T05:12:16.906Z,5.38
2023-09-18T05:14:44.505Z,4.98
2023-09-18T05:17:17.426Z,4.78
2023-09-18T05:19:45.448Z,5.28
2023-09-18T05:22:13.141Z,5.99
2023-09-18T05:24:40.709Z,5.69
2023-09-18T05:27:08.437Z,5.58
2023-09-18T05:29:37.388Z,5.85
2023-09-18T05:32:05.157Z,6.05
2023-09-18T05:34:32.869Z,5.66
2023-09-18T05:36:59.663Z,5.78
2023-09-18T05:39:26.464Z,5.91
2023-09-18T05:41:53.125Z,5.92
2023-09-18T05:44:19.647Z,5.73
2023-09-18T05:46:46.434Z,5.59
2023-09-18T05:49:13.721Z,5.60
2023-09-18T05:51:40.307Z,6.19
2023-09-18T05:54:06.885Z,6.25
2023-09-18T05:56:34.818Z,6.06
2023-09-18T05:59:01.451Z,5.96
2023-09-18T06:01:28.823Z,5.92
2023-09-18T06:03:55.469Z,6.44
2023-09-18T06:06:22.571Z,5.91
2023-09-18T06:08:49.088Z,5.82
2023-09-18T06:11:15.676Z,5.68
2023-09-18T06:13:42.219Z,5.35
2023-09-18T06:16:09.397Z,5.85
2023-09-18T06:18:38.964Z,5.70
2023-09-18T06:21:06.534Z,5.31
2023-09-18T06:23:33.316Z,5.16
2023-09-18T06:26:00.898Z,5.48
2023-09-18T06:28:27.500Z,4.99
2023-09-18T06:30:56.810Z,4.97
2023-09-18T06:33:24.129Z,5.08
2023-09-18T06:35:52.856Z,5.27
2023-09-18T06:38:19.422Z,5.14
2023-09-18T06:40:45.962Z,4.93
2023-09-18T06:43:12.560Z,4.80
2023-09-18T06:45:39.966Z,4.18
2023-09-18T06:48:07.042Z,3.85
2023-09-18T06:50:34.484Z,3.81
2023-09-18T06:53:01.109Z,3.97
2023-09-18T06:55:27.785Z,3.67
2023-09-18T06:57:54.453Z,3.67
2023-09-18T07:00:22.784Z,3.65
2023-09-18T07:02:50.769Z,3.53
2023-09-18T07:05:17.963Z,3.45
2023-09-18T07:07:44.906Z,3.42
2023-09-18T07:10:11.615Z,3.37
2023-09-18T07:12:38.586Z,3.55
2023-09-18T07:15:06.501Z,3.18
2023-09-18T07:17:37.866Z,3.36
2023-09-18T07:20:14.914Z,3.10
2023-09-18T07:22:47.929Z,3.37
2023-09-18T07:25:14.830Z,3.21
2023-09-18T07:27:45.092Z,3.38
2023-09-18T07:30:13.632Z,3.45
2023-09-18T07:32:41.684Z,3.50
2023-09-18T07:35:09.931Z,3.55
2023-09-18T07:37:37.942Z,3.32
2023-09-18T07:40:07.780Z,3.40
2023-09-18T07:42:34.929Z,3.15
2023-09-18T07:45:01.604Z,3.25
2023-09-18T07:47:28.444Z,3.31
2023-09-18T07:49:56.627Z,3.17
2023-09-18T07:52:23.176Z,3.44
2023-09-18T07:54:49.753Z,3.38
2023-09-18T07:57:17.148Z,3.41
2023-09-18T07:59:43.814Z,3.17
2023-09-18T08:02:10.830Z,3.41
2023-09-18T08:04:37.641Z,3.11
2023-09-18T08:07:06.899Z,3.06
2023-09-18T08:09:37.318Z,2.85
2023-09-18T08:12:04.994Z,3.09
2023-09-18T08:14:31.877Z,2.89
2023-09-18T08:17:00.984Z,3.00
2023-09-18T08:19:28.231Z,2.95
2023-09-18T08:21:57.098Z,2.82
2023-09-18T08:24:24.205Z,2.72
2023-09-18T08:26:51.035Z,2.72
2023-09-18T08:29:18.460Z,2.74
2023-09-18T08:31:45.567Z,2.64
2023-09-18T08:34:12.423Z,2.85
2023-09-18T08:36:39.051Z,2.66
2023-09-18T08:39:06.993Z,3.00
2023-09-18T08:41:40.939Z,2.83
2023-09-18T08:44:10.507Z,2.83
2023-09-18T08:46:38.748Z,2.73
2023-09-18T08:49:08.509Z,2.60
2023-09-18T08:51:36.595Z,2.52
2023-09-18T08:54:06.226Z,2.47
2023-09-18T08:56:35.553Z,2.45
2023-09-18T08:59:02.398Z,2.62
2023-09-18T09:01:29.278Z,2.64
2023-09-18T09:03:56.390Z,2.54
2023-09-18T09:06:23.221Z,2.51
2023-09-18T09:08:51.479Z,2.54
2023-09-18T09:11:20.515Z,2.56
2023-09-18T09:13:47.299Z,2.66
2023-09-18T09:16:15.067Z,2.78
2023-09-18T09:18:52.941Z,2.46
2023-09-18T09:21:20.497Z,2.68
2023-09-18T09:23:53.910Z,2.65
2023-09-18T09:26:24.468Z,2.68
2023-09-18T09:28:52.510Z,2.91
2023-09-18T09:31:30.023Z,2.79
2023-09-18T09:33:59.174Z,2.70
2023-09-18T09:36:25.995Z,2.90
2023-09-18T09:38:59.008Z,2.92
2023-09-18T09:41:28.694Z,2.70
2023-09-18T09:43:57.395Z,2.89
2023-09-18T09:46:26.756Z,2.43
2023-09-18T09:49:13.510Z,2.19
2023-09-18T09:51:40.110Z,2.15
2023-09-18T09:54:08.128Z,2.07
2023-09-18T09:56:44.577Z,1.90
2023-09-18T09:59:13.861Z,2.08
2023-09-18T10:01:41.832Z,2.03
2023-09-18T10:04:14.255Z,2.29
2023-09-18T10:06:47.260Z,2.52
2023-09-18T10:09:16.923Z,2.15
2023-09-18T10:11:53.378Z,2.42
2023-09-18T10:14:37.794Z,2.39
2023-09-18T10:17:20.681Z,2.23
2023-09-18T10:20:11.908Z,2.56
2023-09-18T10:22:43.943Z,2.57
2023-09-18T10:25:32.962Z,2.06
2023-09-18T10:28:03.133Z,2.33
2023-09-18T10:30:33.944Z,2.17
2023-09-18T10:33:02.430Z,2.05
2023-09-18T10:35:30.857Z,2.11
2023-09-18T10:37:59.819Z,1.98
2023-09-18T10:40:29.277Z,1.90
2023-09-18T10:43:00.494Z,2.03
2023-09-18T10:45:28.097Z,1.78
2023-09-18T10:47:57.962Z,1.77
2023-09-18T10:50:27.978Z,1.64
2023-09-18T10:52:55.129Z,1.75
2023-09-18T10:55:25.586Z,1.84
2023-09-18T10:57:55.686Z,1.75
2023-09-18T11:00:27.691Z,1.64
2023-09-18T11:03:09.815Z,1.77
2023-09-18T11:05:37.112Z,1.58
2023-09-18T11:08:30.385Z,1.49
2023-09-18T11:11:12.246Z,1.60
2023-09-18T11:13:42.650Z,1.59
2023-09-18T11:16:29.204Z,1.64
2023-09-18T11:18:59.860Z,1.61
2023-09-18T11:21:29.985Z,1.54
2023-09-18T11:24:05.433Z,1.54
2023-09-18T11:26:36.945Z,1.59
2023-09-18T11:29:11.628Z,1.77
2023-09-18T11:31:51.829Z,1.60
2023-09-18T11:34:27.599Z,1.56
2023-09-18T11:36:54.516Z,1.60
2023-09-18T11:39:42.044Z,1.61
2023-09-18T11:42:23.435Z,1.77
2023-09-18T11:44:51.302Z,1.78
2023-09-18T11:47:21.665Z,1.60
2023-09-18T11:49:51.787Z,1.73
2023-09-18T11:52:20.599Z,1.66
2023-09-18T11:54:49.180Z,1.53
2023-09-18T11:57:15.794Z,1.70
2023-09-18T11:59:45.776Z,1.84
2023-09-18T12:02:21.821Z,1.73
2023-09-18T12:04:50.047Z,1.70
2023-09-18T12:07:17.239Z,1.71
2023-09-18T12:09:43.906Z,1.78
2023-09-18T12:12:11.708Z,1.58
2023-09-18T12:14:42.889Z,1.60
2023-09-18T12:17:09.858Z,1.57
2023-09-18T12:19:36.390Z,1.66
2023-09-18T12:22:04.383Z,1.71
2023-09-18T12:24:30.988Z,1.86
2023-09-18T12:26:59.258Z,1.69
2023-09-18T12:29:25.933Z,1.84
2023-09-18T12:31:53.682Z,1.74
2023-09-18T12:34:23.469Z,2.01
2023-09-18T12:36:52.178Z,1.79
2023-09-18T12:39:19.954Z,1.83
2023-09-18T12:41:49.201Z,1.76
2023-09-18T12:44:17.915Z,1.94
2023-09-18T12:46:45.992Z,1.67
2023-09-18T12:49:26.297Z,1.76
2023-09-18T12:51:58.275Z,1.78
2023-09-18T12:54:46.986Z,1.84
2023-09-18T12:57:17.926Z,1.67
2023-09-18T12:59:44.799Z,1.74
2023-09-18T13:02:14.996Z,1.74
2023-09-18T13:04:42.644Z,1.69
2023-09-18T13:07:14.057Z,1.58
2023-09-18T13:09:42.165Z,1.82
2023-09-18T13:12:10.536Z,1.66
2023-09-18T13:15:00.418Z,1.73
2023-09-18T13:17:28.099Z,1.87
2023-09-18T13:19:54.828Z,1.86
2023-09-18T13:22:26.592Z,1.66
2023-09-18T13:24:58.144Z,1.70
2023-09-18T13:27:25.812Z,1.85
2023-09-18T13:29:55.336Z,1.87
2023-09-18T13:32:23.128Z,1.76
2023-09-18T13:34:49.699Z,1.82
2023-09-18T13:37:18.388Z,1.73
2023-09-18T13:39:46.545Z,1.62
2023-09-18T13:42:13.421Z,1.62
2023-09-18T13:44:40.210Z,1.66
2023-09-18T13:47:06.834Z,1.86
2023-09-18T13:49:33.334Z,1.55
2023-09-18T13:52:01.053Z,1.45
2023-09-18T13:54:27.577Z,1.91
2023-09-18T13:56:57.604Z,1.64
2023-09-18T13:59:24.999Z,1.97
2023-09-18T14:01:53.040Z,1.81
2023-09-18T14:04:20.634Z,1.98
2023-09-18T14:06:47.304Z,1.71
2023-09-18T14:09:13.866Z,2.05
2023-09-18T14:11:40.429Z,2.03
2023-09-18T14:14:07.217Z,2.09
2023-09-18T14:16:34.630Z,1.78
2023-09-18T14:19:01.387Z,1.86
2023-09-18T14:21:30.458Z,1.78
2023-09-18T14:23:57.007Z,1.96
2023-09-18T14:26:23.673Z,1.79
2023-09-18T14:28:50.438Z,1.84
2023-09-18T14:31:17.028Z,1.79
2023-09-18T14:33:43.565Z,1.78
2023-09-18T14:36:10.053Z,1.65
2023-09-18T14:38:37.030Z,1.57
2023-09-18T14:41:04.418Z,1.57
2023-09-18T14:43:31.009Z,1.80
2023-09-18T14:45:58.135Z,1.71
2023-09-18T14:48:25.097Z,1.63
2023-09-18T14:50:56.082Z,1.66
2023-09-18T14:53:22.693Z,1.91
2023-09-18T14:55:49.930Z,1.95
2023-09-18T14:58:19.109Z,1.94
2023-09-18T15:00:45.757Z,1.93
2023-09-18T15:03:12.482Z,2.02
2023-09-18T15:05:39.962Z,2.43
2023-09-18T15:08:07.342Z,2.24
2023-09-18T15:10:34.797Z,1.99
2023-09-18T15:13:01.577Z,2.07
2023-09-18T15:15:28.061Z,2.29
2023-09-18T15:17:54.772Z,2.08
2023-09-18T15:20:25.109Z,2.34
2023-09-18T15:22:51.784Z,2.13
2023-09-18T15:25:18.425Z,2.11
2023-09-18T15:27:45.166Z,2.00
2023-09-18T15:30:12.419Z,2.04
2023-09-18T15:32:54.218Z,2.76
2023-09-18T15:35:22.748Z,2.33
2023-09-18T15:37:51.372Z,2.02
2023-09-18T15:40:20.310Z,2.08
2023-09-18T15:42:48.629Z,1.96
2023-09-18T15:45:15.153Z,1.91
2023-09-18T15:47:43.212Z,1.91
2023-09-18T15:50:12.461Z,1.74
2023-09-18T15:52:41.230Z,1.73
2023-09-18T15:55:08.489Z,1.75
2023-09-18T15:57:37.849Z,1.87
2023-09-18T16:00:07.882Z,1.73
2023-09-18T16:02:35.760Z,1.78
2023-09-18T16:05:07.238Z,1.71
2023-09-18T16:07:37.227Z,1.75
2023-09-18T16:10:05.501Z,1.52
2023-09-18T16:12:34.550Z,1.55
2023-09-18T16:15:05.543Z,1.59
2023-09-18T16:17:33.114Z,1.57
2023-09-18T16:20:01.769Z,1.67
2023-09-18T16:22:28.633Z,1.69
2023-09-18T16:24:55.285Z,1.66
2023-09-18T16:27:21.846Z,1.69
2023-09-18T16:29:48.353Z,1.51
2023-09-18T16:32:14.882Z,1.80
2023-09-18T16:34:42.526Z,1.74
2023-09-18T16:37:09.108Z,1.68
2023-09-18T16:39:35.731Z,1.91
2023-09-18T16:42:02.967Z,1.63
2023-09-18T16:44:29.586Z,1.80
2023-09-18T16:46:56.144Z,1.94
2023-09-18T16:49:23.803Z,1.70
2023-09-18T16:51:51.940Z,1.65
2023-09-18T16:54:22.541Z,1.67
2023-09-18T16:56:49.806Z,1.74
2023-09-18T16:59:16.550Z,1.69
2023-09-18T17:01:43.201Z,1.72
2023-09-18T17:04:12.789Z,1.83
2023-09-18T17:06:39.777Z,1.67
2023-09-18T17:09:08.558Z,1.64
2023-09-18T17:11:35.585Z,1.80
2023-09-18T17:14:02.190Z,1.63
2023-09-18T17:16:28.884Z,1.73
2023-09-18T17:18:58.788Z,1.71
2023-09-18T17:21:26.310Z,1.85
2023-09-18T17:23:53.583Z,1.61
2023-09-18T17:26:20.331Z,1.73
2023-09-18T17:28:46.906Z,1.96
2023-09-18T17:31:13.867Z,1.66
2023-09-18T17:33:41.629Z,1.69
2023-09-18T17:36:09.763Z,1.95
2023-09-18T17:38:37.046Z,1.67
2023-09-18T17:41:05.347Z,1.82
2023-09-18T17:43:33.625Z,1.83
2023-09-18T17:46:00.337Z,1.84
2023-09-18T17:48:27.207Z,1.88
2023-09-18T17:50:54.870Z,1.79
2023-09-18T17:53:21.830Z,1.86
2023-09-18T17:55:49.695Z,1.90
2023-09-18T17:58:17.648Z,1.59
2023-09-18T18:00:48.736Z,1.76
2023-09-18T18:03:16.806Z,1.91
2023-09-18T18:05:44.971Z,1.85
2023-09-18T18:08:12.475Z,1.71
2023-09-18T18:10:44.703Z,1.96
2023-09-18T18:13:12.270Z,1.88
2023-09-18T18:15:39.842Z,2.04
2023-09-18T18:18:13.794Z,1.75
2023-09-18T18:20:46.048Z,1.95
2023-09-18T18:23:12.716Z,2.16
2023-09-18T18:25:40.215Z,2.00
2023-09-18T18:28:07.633Z,2.00
2023-09-18T18:30:35.581Z,2.23
2023-09-18T18:33:02.290Z,2.14
2023-09-18T18:35:28.891Z,2.02
2023-09-18T18:37:55.842Z,2.33
2023-09-18T18:40:24.360Z,2.35
2023-09-18T18:42:52.176Z,2.34
2023-09-18T18:45:19.770Z,2.55
2023-09-18T18:47:48.912Z,2.35
2023-09-18T18:50:16.833Z,2.37
2023-09-18T18:52:43.669Z,2.34
2023-09-18T18:55:10.529Z,2.22
2023-09-18T18:57:37.143Z,2.23
2023-09-18T19:00:12.472Z,2.23
2023-09-18T19:02:45.652Z,1.94
2023-09-18T19:05:13.999Z,1.93
2023-09-18T19:07:40.511Z,2.01
2023-09-18T19:10:07.944Z,1.91
2023-09-18T19:12:41.722Z,1.97
2023-09-18T19:15:09.321Z,2.00
2023-09-18T19:17:35.981Z,1.89
2023-09-18T19:20:03.762Z,1.78
2023-09-18T19:22:30.430Z,1.52
2023-09-18T19:24:57.618Z,1.81
2023-09-18T19:27:24.466Z,1.74
2023-09-18T19:29:52.296Z,1.53
2023-09-18T19:32:20.155Z,1.67
2023-09-18T19:34:46.975Z,1.60
2023-09-18T19:37:15.408Z,1.52
2023-09-18T19:39:41.967Z,1.51
2023-09-18T19:42:08.971Z,1.33
2023-09-18T19:44:45.118Z,1.18
2023-09-18T19:47:12.776Z,1.15
2023-09-18T19:49:39.424Z,1.38
2023-09-18T19:52:06.917Z,1.25
2023-09-18T19:54:33.990Z,1.24
2023-09-18T19:57:01.396Z,1.58
2023-09-18T19:59:27.938Z,1.62
2023-09-18T20:01:54.968Z,1.73
2023-09-18T20:04:22.036Z,1.69
2023-09-18T20:06:48.787Z,1.80
2023-09-18T20:09:15.435Z,1.72
2023-09-18T20:11:42.129Z,1.79
2023-09-18T20:14:21.318Z,1.79
2023-09-18T20:16:57.452Z,1.88
2023-09-18T20:19:24.087Z,1.89
2023-09-18T20:21:51.851Z,1.75
2023-09-18T20:24:18.679Z,1.90
2023-09-18T20:26:48.554Z,1.95
2023-09-18T20:29:16.049Z,1.98
2023-09-18T20:31:43.009Z,1.89
2023-09-18T20:34:10.133Z,1.91
2023-09-18T20:36:37.251Z,1.94
2023-09-18T20:39:05.594Z,2.17
2023-09-18T20:41:33.585Z,1.89
2023-09-18T20:44:01.812Z,1.86
2023-09-18T20:46:29.555Z,1.85
2023-09-18T20:49:03.925Z,2.07
2023-09-18T20:51:32.782Z,1.74
2023-09-18T20:54:01.562Z,1.69
2023-09-18T20:56:29.403Z,1.86
2023-09-18T20:59:00.236Z,1.66
2023-09-18T21:01:29.828Z,1.62
2023-09-18T21:03:56.606Z,1.78
2023-09-18T21:06:23.622Z,1.90
2023-09-18T21:08:51.642Z,1.76
2023-09-18T21:11:18.475Z,1.71
2023-09-18T21:13:47.442Z,1.70
2023-09-18T21:16:17.125Z,1.64
2023-09-18T21:18:44.681Z,1.67
2023-09-18T21:23:44.681Z,1.80
2023-09-18T21:26:12.683Z,1.75
2023-09-18T21:28:39.408Z,1.84
2023-09-18T21:31:17.558Z,1.68
2023-09-18T21:33:46.719Z,1.54
2023-09-18T21:36:16.018Z,1.53
2023-09-18T21:38:44.223Z,1.63
2023-09-18T21:41:11.224Z,1.55
2023-09-18T21:43:39.069Z,1.58
2023-09-18T21:46:05.835Z,1.48
2023-09-18T21:48:32.597Z,1.74
2023-09-18T21:50:59.352Z,1.57
2023-09-18T21:53:26.753Z,1.55
2023-09-18T21:55:55.489Z,1.55
2023-09-18T21:58:23.031Z,1.49
2023-09-18T22:01:05.594Z,1.52
2023-09-18T22:03:41.067Z,1.43
2023-09-18T22:06:08.443Z,1.43
2023-09-18T22:08:39.239Z,1.63
2023-09-18T22:11:07.068Z,1.45
2023-09-18T22:13:34.533Z,1.57
2023-09-18T22:16:01.547Z,1.53
2023-09-18T22:18:28.713Z,1.66
2023-09-18T22:20:56.623Z,1.75
2023-09-18T22:23:26.390Z,1.66
2023-09-18T22:28:24.452Z,1.56
2023-09-18T22:30:52.300Z,1.65
2023-09-18T22:33:19.250Z,1.50
2023-09-18T22:35:45.981Z,1.40
2023-09-18T22:38:31.163Z,1.48
2023-09-18T22:40:58.302Z,1.45
2023-09-18T22:44:27.271Z,1.34
2023-09-18T22:47:53.720Z,1.37
2023-09-18T22:51:20.146Z,1.64
2023-09-18T22:53:46.898Z,1.55
2023-09-18T22:56:18.541Z,1.46
2023-09-18T22:58:47.485Z,1.27
2023-09-18T23:01:17.188Z,1.64
2023-09-18T23:03:45.573Z,1.44
2023-09-18T23:06:12.173Z,1.53
2023-09-18T23:08:41.989Z,1.66
2023-09-18T23:11:09.420Z,1.61
2023-09-18T23:13:37.620Z,1.71
2023-09-18T23:16:04.574Z,1.60
2023-09-18T23:18:32.089Z,1.55
2023-09-18T23:20:58.998Z,1.67
2023-09-18T23:23:27.037Z,1.78
2023-09-18T23:25:55.449Z,1.78
2023-09-18T23:28:22.128Z,1.62
2023-09-18T23:30:48.766Z,1.62
2023-09-18T23:33:15.867Z,1.66
2023-09-18T23:35:44.197Z,1.77
2023-09-18T23:38:11.467Z,1.85
2023-09-18T23:40:40.499Z,1.70
2023-09-18T23:43:10.324Z,1.71
2023-09-18T23:45:43.464Z,1.62
2023-09-18T23:48:15.976Z,1.92
2023-09-18T23:50:46.824Z,1.78
2023-09-18T23:53:16.441Z,1.87
2023-09-18T23:55:43.344Z,1.82
2023-09-18T23:58:10.008Z,1.87
